Latest Weather Observations for Lord Howe Island Windy Point

IDN60801

Issued at 12:22 am EDT Tuesday 20 November 2018 (issued every 10 minutes, with the page automatically refreshed every 10 minutes)

About weather observations | Map of weather stations | Latest weather observations for NSW | Other Formats
Station Details ID: 200715 Name: LORD HOWE ISLAND WINDY POINT Lat: -31.54 Lon: 159.07 Height: 4.0 m
Data from the previous 72 hours. | See also: Recent months for locations in New South Wales
Date/Time
EDT
Temp
°C
App
Temp
°C
Dew
Point
°C
Rel
Hum
%
Delta-T
°C
Wind Press
QNH
hPa
Press
MSL
hPa
Rain since
9am
mm
Dir  Spd
km/h
Gust
km/h
Spd
kts
Gust
kts
20/12:00am - - - - - ESE 11 17 6 9 - - -
 
Date/Time
EDT
Temp
°C
App
Temp
°C
Dew
Point
°C
Rel
Hum
%
Delta-T
°C
Wind Press
QNH
hPa
Press
MSL
hPa
Rain since
9am
mm
Dir  Spd
km/h
Gust
km/h
Spd
kts
Gust
kts
19/11:30pm - - - - - ESE 11 17 6 9 - - -
19/11:00pm - - - - - ESE 11 15 6 8 - - -
19/10:30pm - - - - - SSE 13 24 7 13 - - -
19/10:00pm - - - - - SE 11 17 6 9 - - -
19/09:30pm - - - - - ESE 13 26 7 14 - - -
19/09:00pm - - - - - SE 17 32 9 17 - - -
19/08:30pm - - - - - SE 17 32 9 17 - - -
19/08:00pm - - - - - S 15 28 8 15 - - -
19/07:30pm - - - - - SSE 17 33 9 18 - - -
19/07:00pm - - - - - E 17 33 9 18 - - -
19/06:30pm - - - - - ESE 20 32 11 17 - - -
19/06:00pm - - - - - SE 20 35 11 19 - - -
19/05:30pm - - - - - SSE 19 39 10 21 - - -
19/05:00pm - - - - - S 24 48 13 26 - - -
19/04:30pm - - - - - SSE 20 37 11 20 - - -
19/04:00pm - - - - - SE 26 41 14 22 - - -
19/03:30pm - - - - - SSE 24 41 13 22 - - -
19/03:00pm - - - - - S 22 33 12 18 - - -
19/02:30pm - - - - - S 24 44 13 24 - - -
19/02:00pm - - - - - S 22 37 12 20 - - -
19/01:30pm - - - - - S 26 39 14 21 - - -
19/01:00pm - - - - - SSE 22 43 12 23 - - -
19/12:30pm - - - - - S 22 43 12 23 - - -
19/12:00pm - - - - - SSE 22 44 12 24 - - -
19/11:33am - - - - - S 26 50 14 27 - - -
19/11:30am - - - - - S 26 43 14 23 - - -
19/11:00am - - - - - SSE 24 44 13 24 - - -
19/10:43am - - - - - SSE 24 56 13 30 - - -
19/10:30am - - - - - S 28 44 15 24 - - -
19/10:05am - - - - - S 41 59 22 32 - - -
19/10:00am - - - - - S 43 59 23 32 - - -
19/09:34am - - - - - S 28 46 15 25 - - -
19/09:30am - - - - - S 32 46 17 25 - - -
19/09:26am - - - - - S 26 46 14 25 - - -
19/09:00am - - - - - SW 13 17 7 9 - - -
19/08:30am - - - - - NW 4 9 2 5 - - -
19/08:00am - - - - - S 35 48 19 26 - - -
19/07:46am - - - - - S 35 52 19 28 - - -
19/07:30am - - - - - SSW 33 46 18 25 - - -
19/07:12am - - - - - SSW 28 48 15 26 - - -
19/07:00am - - - - - S 26 56 14 30 - - -
19/06:30am - - - - - S 19 30 10 16 - - -
19/06:00am - - - - - SSE 19 35 10 19 - - -
19/05:30am - - - - - SSE 20 30 11 16 - - -
19/05:00am - - - - - SSE 20 28 11 15 - - -
19/04:30am - - - - - SSE 19 28 10 15 - - -
19/04:00am - - - - - S 20 32 11 17 - - -
19/03:30am - - - - - SSW 19 39 10 21 - - -
19/03:00am - - - - - SSW 26 46 14 25 - - -
19/02:30am - - - - - SW 15 41 8 22 - - -
19/02:00am - - - - - SW 13 26 7 14 - - -
19/01:45am - - - - - S 13 46 7 25 - - -
19/01:30am - - - - - WSW 9 19 5 10 - - -
19/01:00am - - - - - SSW 15 33 8 18 - - -
19/12:30am - - - - - SSW 28 41 15 22 - - -
19/12:00am - - - - - SSW 22 50 12 27 - - -
 
Date/Time
EDT
Temp
°C
App
Temp
°C
Dew
Point
°C
Rel
Hum
%
Delta-T
°C
Wind Press
QNH
hPa
Press
MSL
hPa
Rain since
9am
mm
Dir  Spd
km/h
Gust
km/h
Spd
kts
Gust
kts
18/11:37pm - - - - - SSW 20 50 11 27 - - -
18/11:30pm - - - - - SW 17 32 9 17 - - -
18/11:00pm - - - - - SSE 15 43 8 23 - - -
18/10:30pm - - - - - SSE 15 24 8 13 - - -
18/10:00pm - - - - - SE 13 26 7 14 - - -
18/09:30pm - - - - - SSE 11 24 6 13 - - -
18/09:00pm - - - - - E 15 32 8 17 - - -
18/08:30pm - - - - - SSE 15 41 8 22 - - -
18/08:00pm - - - - - SSW 22 61 12 33 - - -
18/07:48pm - - - - - SSW 26 61 14 33 - - -
18/07:30pm - - - - - SSE 11 28 6 15 - - -
18/07:09pm - - - - - SE 15 57 8 31 - - -
18/07:00pm - - - - - SSE 17 44 9 24 - - -
18/06:30pm - - - - - SSW 32 50 17 27 - - -
18/06:00pm - - - - - SSW 28 52 15 28 - - -
18/05:30pm - - - - - SSW 32 52 17 28 - - -
18/05:25pm - - - - - SSW 28 59 15 32 - - -
18/05:21pm - - - - - SSW 28 59 15 32 - - -
18/05:18pm - - - - - SSW 28 59 15 32 - - -
18/05:00pm - - - - - SSW 37 59 20 32 - - -
18/04:38pm - - - - - SSW 26 70 14 38 - - -
18/04:35pm - - - - - SSW 26 50 14 27 - - -
18/04:32pm - - - - - SSW 26 52 14 28 - - -
18/04:30pm - - - - - SW 24 52 13 28 - - -
18/04:00pm - - - - - SSW 30 56 16 30 - - -
18/03:30pm - - - - - SSW 35 65 19 35 - - -
18/03:20pm - - - - - SW 32 69 17 37 - - -
18/03:00pm - - - - - SSW 32 50 17 27 - - -
18/02:30pm - - - - - SSW 32 57 17 31 - - -
18/02:01pm - - - - - SW 30 56 16 30 - - -
18/02:00pm - - - - - SSW 28 56 15 30 - - -
18/01:39pm - - - - - SSW 28 63 15 34 - - -
18/01:30pm - - - - - SW 22 46 12 25 - - -
18/01:00pm - - - - - SSW 24 46 13 25 - - -
18/12:30pm - - - - - S 24 57 13 31 - - -
18/12:00pm - - - - - SSW 26 61 14 33 - - -
18/11:38am - - - - - SSW 28 69 15 37 - - -
18/11:37am - - - - - SSW 26 69 14 37 - - -
18/11:31am - - - - - SW 24 46 13 25 - - -
18/11:30am - - - - - SW 24 46 13 25 - - -
18/11:06am - - - - - SSW 24 48 13 26 - - -
18/11:00am - - - - - SW 20 48 11 26 - - -
18/10:30am - - - - - SSW 32 56 17 30 - - -
18/10:00am - - - - - SSW 24 69 13 37 - - -
18/09:32am - - - - - SSW 28 57 15 31 - - -
18/09:30am - - - - - S 24 57 13 31 - - -
18/09:18am - - - - - SSW 32 52 17 28 - - -
18/09:11am - - - - - SSE 30 57 16 31 - - -
18/09:03am - - - - - SE 22 54 12 29 - - -
18/09:00am - - - - - SE 19 44 10 24 - - -
18/08:37am - - - - - SSW 32 54 17 29 - - -
18/08:30am - - - - - SSW 24 52 13 28 - - -
18/08:00am - - - - - S 28 52 15 28 - - -
18/07:30am - - - - - SSW 32 50 17 27 - - -
18/07:05am - - - - - S 28 67 15 36 - - -
18/07:00am - - - - - S 24 52 13 28 - - -
18/06:30am - - - - - SSE 22 56 12 30 - - -
18/06:00am - - - - - S 28 46 15 25 - - -
18/05:37am - - - - - SSE 28 52 15 28 - - -
18/05:30am - - - - - SSE 26 46 14 25 - - -
18/05:02am - - - - - SSE 28 54 15 29 - - -
18/05:00am - - - - - SSE 24 54 13 29 - - -
18/04:51am - - - - - SSE 24 46 13 25 - - -
18/04:30am - - - - - SSE 22 43 12 23 - - -
18/04:06am - - - - - S 28 48 15 26 - - -
18/04:00am - - - - - S 24 48 13 26 - - -
18/03:30am - - - - - S 24 44 13 24 - - -
18/03:00am - - - - - S 26 37 14 20 - - -
18/02:30am - - - - - S 22 44 12 24 - - -
18/02:00am - - - - - S 24 52 13 28 - - -
18/01:32am - - - - - S 28 52 15 28 - - -
18/01:30am - - - - - S 26 52 14 28 - - -
18/01:13am - - - - - S 28 48 15 26 - - -
18/01:00am - - - - - S 28 39 15 21 - - -
18/12:31am - - - - - SSW 28 46 15 25 - - -
18/12:30am - - - - - SSW 26 46 14 25 - - -
18/12:00am - - - - - S 26 63 14 34 - - -
 
Date/Time
EDT
Temp
°C
App
Temp
°C
Dew
Point
°C
Rel
Hum
%
Delta-T
°C
Wind Press
QNH
hPa
Press
MSL
hPa
Rain since
9am
mm
Dir  Spd
km/h
Gust
km/h
Spd
kts
Gust
kts
17/11:57pm - - - - - S 26 50 14 27 - - -
17/11:30pm - - - - - S 26 43 14 23 - - -
17/11:12pm - - - - - S 30 48 16 26 - - -
17/11:00pm - - - - - S 32 43 17 23 - - -
17/10:30pm - - - - - SSW 20 43 11 23 - - -
17/10:00pm - - - - - SSE 20 35 11 19 - - -
17/09:30pm - - - - - SSE 19 32 10 17 - - -
17/09:00pm - - - - - SSE 17 30 9 16 - - -
17/08:30pm - - - - - SSE 20 33 11 18 - - -
17/08:00pm - - - - - S 24 37 13 20 - - -
17/07:30pm - - - - - S 26 39 14 21 - - -
17/07:00pm - - - - - S 24 35 13 19 - - -
17/06:30pm - - - - - SSE 20 37 11 20 - - -
17/06:00pm - - - - - SSE 22 41 12 22 - - -
17/05:30pm - - - - - S 24 32 13 17 - - -
17/05:00pm - - - - - S 20 28 11 15 - - -
17/04:30pm - - - - - S 17 28 9 15 - - -
17/04:00pm - - - - - SSW 28 39 15 21 - - -
17/03:30pm - - - - - SSW 24 32 13 17 - - -
17/03:00pm - - - - - SSW 24 32 13 17 - - -
17/02:30pm - - - - - SSW 32 35 17 19 - - -
17/02:00pm - - - - - SSW 30 35 16 19 - - -
17/01:30pm - - - - - SSW 28 32 15 17 - - -
17/01:00pm - - - - - SSW 26 32 14 17 - - -
17/12:30pm - - - - - SSW 26 32 14 17 - - -
17/12:00pm - - - - - SSW 24 28 13 15 - - -
17/11:30am - - - - - SSW 19 22 10 12 - - -
17/11:00am - - - - - SW 19 22 10 12 - - -
17/10:30am - - - - - SW 15 19 8 10 - - -
17/10:00am - - - - - SW 15 17 8 9 - - -
17/09:30am - - - - - WSW 11 15 6 8 - - -
17/09:00am - - - - - SW 9 11 5 6 - - -
17/08:30am - - - - - S 9 11 5 6 - - -
17/08:00am - - - - - SW 9 11 5 6 - - -
17/07:30am - - - - - SW 7 9 4 5 - - -
17/07:00am - - - - - CALM 0 0 0 0 - - -
17/06:30am - - - - - CALM 0 0 0 0 - - -
17/06:00am - - - - - CALM 0 0 0 0 - - -
17/05:30am - - - - - CALM 0 0 0 0 - - -
17/05:00am - - - - - CALM 0 0 0 0 - - -
17/04:30am - - - - - CALM 0 0 0 0 - - -
17/04:00am - - - - - CALM 0 0 0 0 - - -
17/03:30am - - - - - CALM 0 0 0 0 - - -
17/03:00am - - - - - CALM 0 0 0 0 - - -
17/02:30am - - - - - CALM 0 0 0 0 - - -
17/02:00am - - - - - CALM 0 0 0 0 - - -
17/01:30am - - - - - NE 6 6 3 3 - - -
17/01:00am - - - - - NE 4 6 2 3 - - -
17/12:30am - - - - - NE 6 7 3 4 - - -

Other Formats:

Comma delimited format used in spreadsheet applications
http://www.bom.gov.au/fwo/IDN60801/IDN60801.95995.axf

JavaScript Object Notation format (JSON) in row-major order
http://www.bom.gov.au/fwo/IDN60801/IDN60801.95995.json